Terminal Aerodrome Forecast
Issued by NWS

Home | Current Version | Previous Version | Text Only | Print | Product List | Glossary On
Versions: 1 2 3 4 5 6 7 8 9 10 11 12 13 14 15 16 17 18 19 20 21 22 23 24
000
FTUS41 KCTP 231124
TAFAOO
TAF
KAOO 231124Z 2312/2412 30014G22KT P6SM OVC025
     FM231500 31014G28KT P6SM OVC050
     FM240000 32012KT P6SM SCT040
     FM240400 34004KT P6SM SKC=

USA.gov is the U.S. government's official web portal to all federal, state and local government web resources and services.